Time;durP1;ratioP1;P1;durP2;ratioP2;P2;SDS_P1;SDS_P2;PMS_P1;PMS_P2;Temp;Humidity;BMP_temperature;BMP_pressure;BME280_temperature;BME280_humidity;BME280_pressure;Samples;Min_cycle;Max_cycle;Signal;HPM_P1;HPM_P2
2023/09/22 00:01:01;;;;;;;;;;;15.70;99.90;;;;;;5093324;28;19972;-65
2023/09/22 00:03:31;;;;;;;;;;;15.80;99.90;;;;;;5103454;28;20254;-65
2023/09/22 00:05:57;;;;;;;;;;;15.90;99.90;;;;;;5082217;28;19970;-73
2023/09/22 00:08:24;;;;;;;;;;;16.00;99.90;;;;;;5092171;28;19950;-68
2023/09/22 00:10:51;;;;;;;;;;;16.00;99.90;;;;;;5091102;28;20368;-66
2023/09/22 00:13:17;;;;;;;;;;;15.90;99.90;;;;;;5095085;28;20420;-66
2023/09/22 00:15:45;;;;;;;;;;;15.90;99.90;;;;;;5092480;28;19919;-67
2023/09/22 00:18:12;;;;;;;;;;;15.80;99.90;;;;;;5094204;28;20385;-70
2023/09/22 00:20:39;;;;;;;;;;;15.90;99.90;;;;;;5090760;28;20397;-66
2023/09/22 00:23:07;;;;;;;;;;;15.90;99.90;;;;;;5094412;28;19908;-69
2023/09/22 00:25:33;;;;;;;;;;;15.80;99.90;;;;;;5092832;28;19912;-67
2023/09/22 00:28:00;;;;;;;;;;;15.70;99.90;;;;;;5092863;28;19916;-66
2023/09/22 00:30:27;;;;;;;;;;;15.80;99.90;;;;;;5083889;28;19912;-73
2023/09/22 00:32:54;;;;;;;;;;;15.90;99.90;;;;;;5094347;28;19953;-65
2023/09/22 00:35:20;;;;;;;;;;;16.00;99.90;;;;;;5093802;28;19930;-70
2023/09/22 00:37:47;;;;;;;;;;;16.20;99.90;;;;;;5085847;28;19912;-66
2023/09/22 00:40:14;;;;;;;;;;;16.40;99.90;;;;;;5094730;28;20364;-66
2023/09/22 00:42:41;;;;;;;;;;;16.60;99.90;;;;;;5095417;28;19908;-69
2023/09/22 00:45:08;;;;;;;;;;;16.80;99.90;;;;;;5081072;28;20395;-69
2023/09/22 00:47:35;;;;;;;;;;;17.10;99.90;;;;;;5076764;28;20019;-67
2023/09/22 00:50:02;;;;;;;;;;;17.20;99.90;;;;;;5074471;28;19958;-69
2023/09/22 00:52:29;;;;;;;;;;;17.20;99.90;;;;;;5094041;28;19943;-67
2023/09/22 00:54:56;;;;;;;;;;;17.40;99.90;;;;;;5085578;28;20391;-69
2023/09/22 00:57:23;;;;;;;;;;;17.50;99.90;;;;;;5094573;28;20351;-68
2023/09/22 00:59:50;;;;;;;;;;;17.70;99.90;;;;;;5094108;28;19912;-65
2023/09/22 01:02:17;;;;;;;;;;;17.80;99.90;;;;;;5094475;28;20361;-66
2023/09/22 01:04:43;;;;;;;;;;;17.90;99.90;;;;;;5084219;28;19912;-71
2023/09/22 01:07:10;;;;;;;;;;;18.00;99.90;;;;;;5094814;28;20379;-66
2023/09/22 01:09:37;;;;;;;;;;;18.20;99.90;;;;;;5094697;28;19981;-68
2023/09/22 01:12:04;;;;;;;;;;;18.40;99.90;;;;;;5092415;28;19919;-73
2023/09/22 01:14:30;;;;;;;;;;;18.50;99.90;;;;;;5098394;28;20006;-68
2023/09/22 01:16:58;;;;;;;;;;;18.70;99.90;;;;;;5101055;28;19989;-68
2023/09/22 01:19:25;;;;;;;;;;;18.80;99.90;;;;;;5092973;28;19912;-69
2023/09/22 01:21:51;;;;;;;;;;;18.90;99.90;;;;;;5093292;28;20265;-75
2023/09/22 01:24:19;;;;;;;;;;;19.20;99.90;;;;;;5093805;28;19908;-70
2023/09/22 01:26:46;;;;;;;;;;;19.30;98.60;;;;;;5076581;28;19912;-71
2023/09/22 01:29:12;;;;;;;;;;;19.40;98.10;;;;;;5080416;28;19917;-67
2023/09/22 01:31:42;;;;;;;;;;;19.40;97.10;;;;;;5089993;28;19914;-73
2023/09/22 01:34:10;;;;;;;;;;;19.60;97.00;;;;;;5091274;28;19961;-68
2023/09/22 01:36:37;;;;;;;;;;;19.60;96.30;;;;;;5093809;28;19912;-65
2023/09/22 01:39:08;;;;;;;;;;;19.80;96.00;;;;;;5091971;28;19919;-67
2023/09/22 01:41:35;;;;;;;;;;;19.90;95.10;;;;;;5079606;28;19921;-67
2023/09/22 01:44:02;;;;;;;;;;;20.20;95.40;;;;;;5078989;28;19957;-66
2023/09/22 01:46:28;;;;;;;;;;;20.50;95.00;;;;;;5089130;28;19912;-67
2023/09/22 01:48:55;;;;;;;;;;;20.70;95.00;;;;;;5093929;28;19920;-68
2023/09/22 01:51:23;;;;;;;;;;;20.60;94.40;;;;;;5093622;28;19955;-65
2023/09/22 01:53:50;;;;;;;;;;;20.70;95.70;;;;;;5084219;28;19909;-66
2023/09/22 01:56:16;;;;;;;;;;;20.60;94.30;;;;;;5073658;28;19916;-66
2023/09/22 01:58:43;;;;;;;;;;;20.60;94.20;;;;;;5081969;28;19912;-65
2023/09/22 02:01:10;;;;;;;;;;;20.70;93.60;;;;;;5076435;28;19967;-65
2023/09/22 02:03:37;;;;;;;;;;;20.70;93.80;;;;;;5080670;28;19912;-64
2023/09/22 02:06:05;;;;;;;;;;;20.80;93.80;;;;;;5093172;28;19965;-65
2023/09/22 02:08:31;;;;;;;;;;;20.70;94.70;;;;;;5091231;28;20372;-66
2023/09/22 02:10:58;;;;;;;;;;;21.00;94.80;;;;;;5089759;28;19965;-66
2023/09/22 02:13:25;;;;;;;;;;;21.00;93.20;;;;;;5086695;28;19913;-69
2023/09/22 02:15:52;;;;;;;;;;;21.20;92.50;;;;;;5091751;28;19915;-67
2023/09/22 02:18:19;;;;;;;;;;;21.00;93.00;;;;;;5091888;28;20391;-67
2023/09/22 02:20:45;;;;;;;;;;;21.00;92.70;;;;;;5081254;28;19920;-70
2023/09/22 02:23:12;;;;;;;;;;;21.30;92.50;;;;;;5077186;28;20284;-64
2023/09/22 02:25:38;;;;;;;;;;;21.20;92.10;;;;;;5092514;28;19912;-67
2023/09/22 02:28:05;;;;;;;;;;;21.00;91.50;;;;;;5090708;28;20436;-66
2023/09/22 02:30:32;;;;;;;;;;;21.10;92.20;;;;;;5076102;28;19964;-67
2023/09/22 02:32:59;;;;;;;;;;;21.30;92.30;;;;;;5076974;28;19917;-65
2023/09/22 02:35:25;;;;;;;;;;;21.60;92.20;;;;;;5092563;28;20109;-66
2023/09/22 02:37:52;;;;;;;;;;;21.90;90.50;;;;;;5091781;28;20288;-69
2023/09/22 02:40:18;;;;;;;;;;;21.80;90.30;;;;;;5092629;28;19919;-69
2023/09/22 02:42:45;;;;;;;;;;;21.50;89.30;;;;;;5091980;28;19941;-66
2023/09/22 02:45:12;;;;;;;;;;;21.10;90.60;;;;;;5072453;28;19912;-65
2023/09/22 02:47:40;;;;;;;;;;;20.70;90.50;;;;;;5088877;28;20368;-66
2023/09/22 02:50:10;;;;;;;;;;;20.40;91.90;;;;;;5094510;28;19991;-68
2023/09/22 02:52:38;;;;;;;;;;;20.30;92.10;;;;;;5092126;28;20368;-66
2023/09/22 02:55:07;;;;;;;;;;;20.30;90.90;;;;;;5088368;28;19948;-68
2023/09/22 02:57:35;;;;;;;;;;;20.10;90.10;;;;;;5091977;28;19908;-67
2023/09/22 03:00:11;;;;;;;;;;;20.20;90.50;;;;;;5091464;28;19916;-67
2023/09/22 03:02:38;;;;;;;;;;;20.70;90.30;;;;;;5092432;28;19977;-68
2023/09/22 03:05:07;;;;;;;;;;;20.90;88.80;;;;;;5090026;28;19960;-65
2023/09/22 03:07:34;;;;;;;;;;;20.90;88.60;;;;;;5092083;28;19915;-71
2023/09/22 03:10:00;;;;;;;;;;;20.70;89.20;;;;;;5092036;28;20434;-69
2023/09/22 03:12:27;;;;;;;;;;;20.50;90.10;;;;;;5091136;28;19912;-64
2023/09/22 03:14:54;;;;;;;;;;;20.10;89.30;;;;;;5089540;28;19939;-64
2023/09/22 03:17:20;;;;;;;;;;;20.00;90.60;;;;;;5079006;28;19912;-67
2023/09/22 03:19:47;;;;;;;;;;;19.70;89.60;;;;;;5082030;28;19928;-64
2023/09/22 03:22:14;;;;;;;;;;;19.70;90.70;;;;;;5091957;28;20418;-66
2023/09/22 03:24:40;;;;;;;;;;;19.70;89.40;;;;;;5091072;28;19915;-66
2023/09/22 03:27:07;;;;;;;;;;;19.60;88.80;;;;;;5091436;28;19948;-65
2023/09/22 03:29:34;;;;;;;;;;;19.50;89.00;;;;;;5091080;28;19912;-67
2023/09/22 03:32:01;;;;;;;;;;;19.40;88.80;;;;;;5091385;28;19998;-66
2023/09/22 03:34:27;;;;;;;;;;;19.30;88.70;;;;;;5076900;28;19908;-70
2023/09/22 03:36:54;;;;;;;;;;;19.20;88.40;;;;;;5087789;28;19916;-69
2023/09/22 03:39:25;;;;;;;;;;;19.20;89.10;;;;;;5086094;28;19962;-66
2023/09/22 03:41:54;;;;;;;;;;;19.40;88.80;;;;;;5089395;28;19927;-68
2023/09/22 03:44:21;;;;;;;;;;;19.60;87.00;;;;;;5078020;28;19916;-70
2023/09/22 03:46:47;;;;;;;;;;;19.80;87.50;;;;;;5079641;28;19908;-68
2023/09/22 03:49:14;;;;;;;;;;;20.00;88.30;;;;;;5091080;28;20369;-68
2023/09/22 03:51:40;;;;;;;;;;;20.00;88.20;;;;;;5091411;28;19912;-69
2023/09/22 03:54:08;;;;;;;;;;;20.20;88.70;;;;;;5090199;28;19908;-70
2023/09/22 03:56:37;;;;;;;;;;;20.50;88.90;;;;;;5073266;28;19916;-70
2023/09/22 03:59:05;;;;;;;;;;;20.90;88.60;;;;;;5069905;28;19909;-70
2023/09/22 04:01:32;;;;;;;;;;;22.00;87.60;;;;;;5068593;28;19916;-73
2023/09/22 04:03:58;;;;;;;;;;;23.80;85.10;;;;;;5079504;28;20002;-68
2023/09/22 04:06:25;;;;;;;;;;;26.00;77.00;;;;;;5089780;28;19908;-68
2023/09/22 04:08:52;;;;;;;;;;;27.20;73.50;;;;;;5088867;28;19919;-69
2023/09/22 04:11:18;;;;;;;;;;;28.40;71.80;;;;;;5080334;28;19948;-70
2023/09/22 04:13:45;;;;;;;;;;;29.80;67.90;;;;;;5090614;28;19919;-69
2023/09/22 04:16:12;;;;;;;;;;;29.40;65.80;;;;;;5081540;28;19917;-71
2023/09/22 04:18:39;;;;;;;;;;;29.70;64.90;;;;;;5071945;28;20315;-68
2023/09/22 04:21:07;;;;;;;;;;;30.40;64.50;;;;;;5074218;28;21618;-64
2023/09/22 04:23:39;;;;;;;;;;;31.50;61.40;;;;;;5091648;28;19916;-65
2023/09/22 04:26:09;;;;;;;;;;;31.80;61.20;;;;;;5088278;28;19919;-68
2023/09/22 04:28:40;;;;;;;;;;;32.30;60.10;;;;;;5090097;28;19912;-70
2023/09/22 04:31:11;;;;;;;;;;;31.90;59.00;;;;;;5090941;28;20368;-71
2023/09/22 04:33:37;;;;;;;;;;;31.80;59.60;;;;;;5089584;28;19965;-72
2023/09/22 04:36:04;;;;;;;;;;;31.00;59.30;;;;;;5090291;28;19934;-71
2023/09/22 04:38:31;;;;;;;;;;;30.50;60.70;;;;;;5090893;28;19912;-68
2023/09/22 04:40:58;;;;;;;;;;;30.80;60.80;;;;;;5094255;28;19924;-67
2023/09/22 04:43:25;;;;;;;;;;;31.50;59.70;;;;;;5094405;28;19977;-64
2023/09/22 04:45:51;;;;;;;;;;;31.80;58.60;;;;;;5093728;28;19919;-67
2023/09/22 04:48:19;;;;;;;;;;;32.10;57.10;;;;;;5094797;28;20376;-66
2023/09/22 04:50:53;;;;;;;;;;;31.70;57.90;;;;;;5094516;28;19922;-70
2023/09/22 04:53:20;;;;;;;;;;;31.90;57.90;;;;;;5089809;28;19959;-72
2023/09/22 04:55:48;;;;;;;;;;;32.80;56.70;;;;;;5089806;28;19908;-67
2023/09/22 04:58:16;;;;;;;;;;;33.00;55.10;;;;;;5093897;28;19912;-65
2023/09/22 05:00:53;;;;;;;;;;;33.00;56.10;;;;;;5093230;28;19973;-68
2023/09/22 05:03:19;;;;;;;;;;;33.20;55.50;;;;;;5094582;28;20292;-65
2023/09/22 05:05:46;;;;;;;;;;;32.90;55.10;;;;;;5087157;28;19912;-68
2023/09/22 05:08:13;;;;;;;;;;;32.50;54.90;;;;;;5093828;28;20330;-65
2023/09/22 05:10:40;;;;;;;;;;;32.80;54.70;;;;;;5094478;28;19908;-68
2023/09/22 05:13:07;;;;;;;;;;;33.40;54.60;;;;;;5094085;28;20273;-64
2023/09/22 05:15:33;;;;;;;;;;;33.30;54.50;;;;;;5093817;28;19911;-64
2023/09/22 05:18:00;;;;;;;;;;;32.80;55.20;;;;;;5094359;28;19908;-66
2023/09/22 05:20:27;;;;;;;;;;;33.10;54.50;;;;;;5093433;28;19916;-67
2023/09/22 05:22:54;;;;;;;;;;;32.80;56.30;;;;;;5091424;28;19938;-66
2023/09/22 05:25:21;;;;;;;;;;;32.70;54.80;;;;;;5090320;28;19916;-67
2023/09/22 05:27:48;;;;;;;;;;;32.00;55.30;;;;;;5093858;28;19908;-65
2023/09/22 05:30:14;;;;;;;;;;;31.80;55.00;;;;;;5093598;28;19915;-65
2023/09/22 05:32:42;;;;;;;;;;;31.90;55.00;;;;;;5093992;28;20357;-65
2023/09/22 05:35:09;;;;;;;;;;;32.00;54.90;;;;;;5073622;28;19912;-66
2023/09/22 05:37:35;;;;;;;;;;;32.50;55.20;;;;;;5088475;28;20304;-65
2023/09/22 05:40:05;;;;;;;;;;;32.70;54.80;;;;;;5090453;28;19923;-66
2023/09/22 05:42:32;;;;;;;;;;;32.50;54.70;;;;;;5092902;28;19916;-66
2023/09/22 05:44:59;;;;;;;;;;;32.50;54.30;;;;;;5088717;28;20011;-71
2023/09/22 05:47:26;;;;;;;;;;;32.30;54.90;;;;;;5093295;28;19916;-69
2023/09/22 05:49:52;;;;;;;;;;;33.00;53.70;;;;;;5092047;28;19912;-67
2023/09/22 05:52:20;;;;;;;;;;;33.10;54.20;;;;;;5093351;28;19912;-70
2023/09/22 05:54:47;;;;;;;;;;;33.50;53.10;;;;;;5080583;28;19916;-68
2023/09/22 05:57:14;;;;;;;;;;;33.20;53.90;;;;;;5072981;28;19962;-68
2023/09/22 05:59:42;;;;;;;;;;;33.00;53.70;;;;;;5081218;28;20329;-67
2023/09/22 06:02:08;;;;;;;;;;;31.90;54.50;;;;;;5087743;28;19912;-73
2023/09/22 06:04:35;;;;;;;;;;;31.40;55.90;;;;;;5088733;28;19959;-66
2023/09/22 06:07:02;;;;;;;;;;;32.00;54.00;;;;;;5097287;28;19912;-68
2023/09/22 06:09:31;;;;;;;;;;;32.10;53.60;;;;;;5101676;28;19981;-70
2023/09/22 06:11:58;;;;;;;;;;;32.30;52.90;;;;;;5073847;28;19916;-66
2023/09/22 06:14:24;;;;;;;;;;;32.30;53.10;;;;;;5082586;28;19912;-74
2023/09/22 06:16:51;;;;;;;;;;;32.00;53.90;;;;;;5081992;28;20357;-67
2023/09/22 06:19:18;;;;;;;;;;;31.50;54.60;;;;;;5091516;28;19970;-69
2023/09/22 06:21:45;;;;;;;;;;;31.40;54.50;;;;;;5091048;28;20408;-66
2023/09/22 06:24:12;;;;;;;;;;;31.00;55.30;;;;;;5090481;28;19964;-66
2023/09/22 06:26:38;;;;;;;;;;;30.30;56.40;;;;;;5091602;28;19994;-64
2023/09/22 06:29:05;;;;;;;;;;;29.80;57.30;;;;;;5090841;28;20360;-73
2023/09/22 06:31:33;;;;;;;;;;;29.60;57.30;;;;;;5086394;28;19913;-66
2023/09/22 06:34:00;;;;;;;;;;;29.90;56.60;;;;;;5089074;28;19950;-65
2023/09/22 06:36:26;;;;;;;;;;;30.00;56.20;;;;;;5095360;28;19916;-68
2023/09/22 06:38:53;;;;;;;;;;;29.90;55.20;;;;;;5095577;28;20292;-70
2023/09/22 06:41:20;;;;;;;;;;;29.40;56.20;;;;;;5099271;28;20411;-66
2023/09/22 06:43:46;;;;;;;;;;;29.40;56.80;;;;;;5098231;28;19912;-66
2023/09/22 06:46:14;;;;;;;;;;;29.30;56.00;;;;;;5101982;28;19964;-69
2023/09/22 06:48:40;;;;;;;;;;;28.80;56.60;;;;;;5099887;28;19931;-66
2023/09/22 06:51:12;;;;;;;;;;;27.60;58.30;;;;;;5101595;28;19922;-66
2023/09/22 06:53:39;;;;;;;;;;;26.50;59.70;;;;;;5091546;28;19916;-67
2023/09/22 06:56:09;;;;;;;;;;;25.30;61.10;;;;;;5091355;28;19915;-66
2023/09/22 06:58:36;;;;;;;;;;;24.30;62.10;;;;;;5091244;28;19912;-65
2023/09/22 07:01:07;;;;;;;;;;;23.40;63.40;;;;;;5090444;28;20023;-66
2023/09/22 07:03:34;;;;;;;;;;;22.50;66.30;;;;;;5087673;28;19942;-67
2023/09/22 07:06:01;;;;;;;;;;;21.90;67.20;;;;;;5090896;28;20311;-65
2023/09/22 07:08:29;;;;;;;;;;;21.40;68.20;;;;;;5089450;27;20376;-65
2023/09/22 07:11:08;;;;;;;;;;;20.90;69.70;;;;;;5081732;28;19947;-72
2023/09/22 07:13:35;;;;;;;;;;;20.40;70.90;;;;;;5084399;28;19916;-66
2023/09/22 07:16:01;;;;;;;;;;;20.00;72.40;;;;;;5089860;28;19916;-66
2023/09/22 07:18:28;;;;;;;;;;;19.60;73.80;;;;;;5090684;28;19905;-66
2023/09/22 07:20:55;;;;;;;;;;;19.30;75.60;;;;;;5085481;28;20010;-64
2023/09/22 07:23:22;;;;;;;;;;;19.20;75.30;;;;;;5085780;28;19913;-64
2023/09/22 07:26:01;;;;;;;;;;;19.00;76.50;;;;;;5071337;28;19909;-64
2023/09/22 07:28:28;;;;;;;;;;;18.90;78.60;;;;;;5070902;28;19923;-67
2023/09/22 07:30:55;;;;;;;;;;;18.70;79.70;;;;;;5081826;28;20241;-68
2023/09/22 07:33:24;;;;;;;;;;;18.60;79.30;;;;;;5085780;28;19908;-67
2023/09/22 07:35:50;;;;;;;;;;;18.50;80.40;;;;;;5080773;28;19919;-67
2023/09/22 07:38:18;;;;;;;;;;;18.40;79.70;;;;;;5086013;28;19943;-66
2023/09/22 07:40:44;;;;;;;;;;;18.30;80.30;;;;;;5084373;28;19920;-65
2023/09/22 07:43:11;;;;;;;;;;;18.10;80.60;;;;;;5085276;28;19920;-66
2023/09/22 07:45:39;;;;;;;;;;;18.00;81.70;;;;;;5085639;28;19908;-64
2023/09/22 07:48:05;;;;;;;;;;;17.90;82.10;;;;;;5088768;28;19923;-66
2023/09/22 07:50:34;;;;;;;;;;;17.80;81.30;;;;;;5084824;28;19912;-66
2023/09/22 07:53:02;;;;;;;;;;;17.70;81.90;;;;;;5083826;28;19912;-67
2023/09/22 07:55:29;;;;;;;;;;;17.60;81.90;;;;;;5083000;28;19916;-73
2023/09/22 07:57:56;;;;;;;;;;;17.60;82.40;;;;;;5085201;28;20440;-66
2023/09/22 08:00:23;;;;;;;;;;;17.50;83.00;;;;;;5085783;28;19941;-69
2023/09/22 08:02:50;;;;;;;;;;;17.40;82.50;;;;;;5086633;28;19944;-66
2023/09/22 08:05:16;;;;;;;;;;;17.40;82.30;;;;;;5091127;28;20272;-66
2023/09/22 08:07:43;;;;;;;;;;;17.30;82.90;;;;;;5090441;28;20373;-65
2023/09/22 08:10:11;;;;;;;;;;;17.30;83.00;;;;;;5087152;28;19999;-68
2023/09/22 08:12:38;;;;;;;;;;;17.10;83.40;;;;;;5084530;28;19923;-66
2023/09/22 08:15:05;;;;;;;;;;;17.00;84.00;;;;;;5091234;28;20017;-64
2023/09/22 08:17:32;;;;;;;;;;;16.90;83.90;;;;;;5093524;28;19912;-68
2023/09/22 08:19:58;;;;;;;;;;;17.00;83.90;;;;;;5090926;28;19954;-65
2023/09/22 08:22:26;;;;;;;;;;;17.00;84.40;;;;;;5089800;28;20376;-65
2023/09/22 08:24:53;;;;;;;;;;;16.90;84.90;;;;;;5087088;28;19913;-67
2023/09/22 08:27:20;;;;;;;;;;;16.90;84.30;;;;;;5088266;28;19939;-69
2023/09/22 08:29:50;;;;;;;;;;;16.90;85.60;;;;;;5074780;28;20266;-69
2023/09/22 08:32:17;;;;;;;;;;;16.80;86.10;;;;;;5088849;28;19971;-66
2023/09/22 08:34:44;;;;;;;;;;;16.70;86.80;;;;;;5095519;28;20448;-66
2023/09/22 08:37:10;;;;;;;;;;;16.70;87.10;;;;;;5095425;28;19927;-66
2023/09/22 08:39:37;;;;;;;;;;;16.70;87.30;;;;;;5095396;28;19908;-66
2023/09/22 08:42:04;;;;;;;;;;;16.60;87.30;;;;;;5095198;28;19916;-66
2023/09/22 08:44:30;;;;;;;;;;;16.60;88.40;;;;;;5094610;28;20353;-66
2023/09/22 08:46:58;;;;;;;;;;;16.50;88.00;;;;;;5102583;28;19951;-67
2023/09/22 08:49:26;;;;;;;;;;;16.50;87.20;;;;;;5112874;28;19945;-65
2023/09/22 08:51:52;;;;;;;;;;;16.60;87.40;;;;;;5114201;28;19908;-66
2023/09/22 08:54:19;;;;;;;;;;;16.70;88.30;;;;;;5113171;28;20383;-66
2023/09/22 08:56:46;;;;;;;;;;;16.70;88.30;;;;;;5114568;28;19935;-69
2023/09/22 08:59:12;;;;;;;;;;;16.80;86.80;;;;;;5114945;28;19908;-72
2023/09/22 09:01:39;;;;;;;;;;;16.90;86.30;;;;;;5115707;28;19916;-66
2023/09/22 09:04:23;;;;;;;;;;;16.90;86.00;;;;;;5115670;28;19907;-69
2023/09/22 09:06:53;;;;;;;;;;;16.90;85.30;;;;;;5116141;28;19912;-65
2023/09/22 09:09:20;;;;;;;;;;;16.90;86.50;;;;;;5115787;27;19930;-66
2023/09/22 09:11:59;;;;;;;;;;;16.90;86.80;;;;;;5115316;28;19908;-66
2023/09/22 09:14:29;;;;;;;;;;;16.90;85.80;;;;;;5074575;28;19938;-66
2023/09/22 09:16:56;;;;;;;;;;;16.90;86.30;;;;;;5074529;28;19909;-66
2023/09/22 09:19:23;;;;;;;;;;;16.90;87.00;;;;;;5074086;28;20436;-68
2023/09/22 09:22:12;;;;;;;;;;;16.90;86.80;;;;;;5074937;28;20435;-69
2023/09/22 09:24:41;;;;;;;;;;;16.80;86.30;;;;;;5074211;28;19948;-66
2023/09/22 09:27:21;;;;;;;;;;;16.80;86.40;;;;;;5074203;28;19915;-68
2023/09/22 09:29:53;;;;;;;;;;;16.70;86.90;;;;;;5074618;28;20432;-68
2023/09/22 09:32:24;;;;;;;;;;;16.70;87.80;;;;;;5074743;28;19914;-66
2023/09/22 09:34:51;;;;;;;;;;;16.60;87.50;;;;;;5074657;28;19913;-67
2023/09/22 09:37:19;;;;;;;;;;;16.50;87.80;;;;;;5093521;28;19908;-68
2023/09/22 09:39:52;;;;;;;;;;;16.50;87.40;;;;;;5094544;28;20002;-65
2023/09/22 09:42:22;;;;;;;;;;;16.40;88.50;;;;;;5094337;28;20266;-66
2023/09/22 09:44:50;;;;;;;;;;;16.40;90.10;;;;;;5094543;28;20391;-65
2023/09/22 09:47:26;;;;;;;;;;;16.40;90.10;;;;;;5094477;28;19917;-66
2023/09/22 09:49:54;;;;;;;;;;;16.30;90.50;;;;;;5094418;28;19931;-65
2023/09/22 09:52:39;;;;;;;;;;;16.20;90.80;;;;;;5093361;28;19908;-67
2023/09/22 09:55:12;;;;;;;;;;;16.10;91.60;;;;;;5094201;28;19952;-66
2023/09/22 09:57:40;;;;;;;;;;;16.00;91.90;;;;;;5091173;28;20417;-66
2023/09/22 10:00:12;;;;;;;;;;;16.00;92.80;;;;;;5092792;28;19912;-70
2023/09/22 10:02:41;;;;;;;;;;;16.00;93.80;;;;;;5094035;28;19920;-65
2023/09/22 10:05:08;;;;;;;;;;;15.80;93.90;;;;;;5093851;28;20280;-66
2023/09/22 10:07:36;;;;;;;;;;;15.90;95.00;;;;;;5093489;28;20330;-66
2023/09/22 10:10:04;;;;;;;;;;;15.90;95.60;;;;;;5090272;28;19918;-66
2023/09/22 10:12:30;;;;;;;;;;;15.90;96.20;;;;;;5092409;28;20388;-67
2023/09/22 10:15:01;;;;;;;;;;;15.90;96.80;;;;;;5092913;28;19907;-66
2023/09/22 10:17:28;;;;;;;;;;;15.80;96.90;;;;;;5092011;28;19957;-66
2023/09/22 10:19:56;;;;;;;;;;;15.80;97.60;;;;;;5089279;28;20304;-68
2023/09/22 10:22:22;;;;;;;;;;;15.80;98.00;;;;;;5093621;28;19913;-66
2023/09/22 10:25:10;;;;;;;;;;;15.70;98.00;;;;;;5092171;28;20349;-68
2023/09/22 10:27:55;;;;;;;;;;;15.60;98.30;;;;;;5089405;28;20362;-65
2023/09/22 10:30:23;;;;;;;;;;;15.60;99.00;;;;;;5093319;28;20349;-66
2023/09/22 10:32:49;;;;;;;;;;;15.60;99.60;;;;;;5093584;28;19908;-66
2023/09/22 10:35:36;;;;;;;;;;;15.60;99.90;;;;;;5093078;28;20345;-65
2023/09/22 10:38:05;;;;;;;;;;;15.50;99.70;;;;;;5092871;28;19908;-65
2023/09/22 10:40:32;;;;;;;;;;;15.60;99.90;;;;;;5092605;28;19919;-66
2023/09/22 10:43:02;;;;;;;;;;;15.60;99.90;;;;;;5093274;28;19931;-66
2023/09/22 10:45:29;;;;;;;;;;;15.50;99.90;;;;;;5093114;28;20257;-70
2023/09/22 10:47:59;;;;;;;;;;;15.50;99.90;;;;;;5092216;28;19955;-69
2023/09/22 10:50:30;;;;;;;;;;;15.60;99.90;;;;;;5092786;28;19918;-66
2023/09/22 10:52:57;;;;;;;;;;;15.50;99.90;;;;;;5092971;28;19999;-67
2023/09/22 10:55:27;;;;;;;;;;;15.40;99.90;;;;;;5092825;28;20423;-67
2023/09/22 10:57:55;;;;;;;;;;;15.40;99.90;;;;;;5093440;28;20002;-65
2023/09/22 11:00:22;;;;;;;;;;;15.40;99.90;;;;;;5092992;28;19916;-65
2023/09/22 11:02:49;;;;;;;;;;;15.40;99.90;;;;;;5093023;28;20364;-65
2023/09/22 11:05:19;;;;;;;;;;;15.40;99.90;;;;;;5092964;28;20367;-66
2023/09/22 11:07:47;;;;;;;;;;;15.30;99.90;;;;;;5093054;28;19911;-67
2023/09/22 11:10:22;;;;;;;;;;;15.20;99.90;;;;;;5092778;28;19908;-66
2023/09/22 11:12:54;;;;;;;;;;;15.10;99.90;;;;;;5092941;28;20250;-69
2023/09/22 11:15:21;;;;;;;;;;;15.10;99.90;;;;;;5092314;28;19916;-66
2023/09/22 11:17:48;;;;;;;;;;;15.10;99.90;;;;;;5092791;28;19908;-66
2023/09/22 11:20:18;;;;;;;;;;;15.00;99.90;;;;;;5092497;28;19919;-68
2023/09/22 11:22:48;;;;;;;;;;;15.00;99.90;;;;;;5092442;28;19913;-66
2023/09/22 11:25:15;;;;;;;;;;;14.90;99.90;;;;;;5092328;28;20250;-66
2023/09/22 11:27:51;;;;;;;;;;;15.00;99.90;;;;;;5092580;28;19909;-67
2023/09/22 11:30:25;;;;;;;;;;;14.90;99.90;;;;;;5092699;28;19908;-68
2023/09/22 11:32:52;;;;;;;;;;;14.90;99.90;;;;;;5091484;28;20246;-68
2023/09/22 11:35:28;;;;;;;;;;;14.90;99.90;;;;;;5090899;28;19915;-68
2023/09/22 11:37:55;;;;;;;;;;;14.80;99.90;;;;;;5086878;28;19959;-66
2023/09/22 11:40:25;;;;;;;;;;;14.80;99.90;;;;;;5080937;28;19923;-62
2023/09/22 11:42:51;;;;;;;;;;;14.70;99.90;;;;;;5091309;28;19920;-68
2023/09/22 11:45:22;;;;;;;;;;;14.70;99.90;;;;;;5091233;28;19995;-65
2023/09/22 11:47:49;;;;;;;;;;;14.70;99.90;;;;;;5090843;28;19923;-65
2023/09/22 11:50:25;;;;;;;;;;;14.60;99.90;;;;;;5094009;28;19915;-66
2023/09/22 11:52:52;;;;;;;;;;;14.60;99.90;;;;;;5096406;28;19912;-65
2023/09/22 11:55:19;;;;;;;;;;;14.60;99.90;;;;;;5094271;28;19918;-66
2023/09/22 11:57:46;;;;;;;;;;;14.50;99.90;;;;;;5096050;28;19908;-68
2023/09/22 12:00:14;;;;;;;;;;;14.50;99.90;;;;;;5095338;28;19912;-67
2023/09/22 12:02:42;;;;;;;;;;;14.50;99.90;;;;;;5092539;28;19913;-64
2023/09/22 12:05:09;;;;;;;;;;;14.40;99.90;;;;;;5087242;28;19916;-64
2023/09/22 12:07:35;;;;;;;;;;;14.40;99.90;;;;;;5080807;28;19916;-65
2023/09/22 12:10:03;;;;;;;;;;;14.30;99.90;;;;;;5076280;28;19948;-64
2023/09/22 12:12:29;;;;;;;;;;;14.30;99.90;;;;;;5094133;28;19908;-64
2023/09/22 12:14:56;;;;;;;;;;;14.30;99.90;;;;;;5091406;28;19999;-64
2023/09/22 12:17:22;;;;;;;;;;;14.20;99.90;;;;;;5095709;28;20110;-64
2023/09/22 12:19:50;;;;;;;;;;;14.20;99.90;;;;;;5095398;28;19952;-65
2023/09/22 12:22:17;;;;;;;;;;;14.20;99.90;;;;;;5077719;28;19962;-65
2023/09/22 12:24:44;;;;;;;;;;;14.20;99.90;;;;;;5102185;28;19916;-66
2023/09/22 12:27:11;;;;;;;;;;;14.10;99.90;;;;;;5091470;28;20339;-64
2023/09/22 12:29:38;;;;;;;;;;;14.20;99.90;;;;;;5085953;28;20007;-66
2023/09/22 12:32:06;;;;;;;;;;;14.20;99.90;;;;;;5091414;28;20026;-66
2023/09/22 12:34:33;;;;;;;;;;;14.00;99.90;;;;;;5075602;28;19923;-65
2023/09/22 12:37:00;;;;;;;;;;;14.10;99.90;;;;;;5108907;28;19908;-66
2023/09/22 12:39:27;;;;;;;;;;;14.10;99.90;;;;;;5113077;28;20022;-62
2023/09/22 12:41:54;;;;;;;;;;;14.00;99.90;;;;;;5095721;28;19923;-64
2023/09/22 12:44:22;;;;;;;;;;;14.00;99.90;;;;;;5095732;28;19908;-65
2023/09/22 12:46:48;;;;;;;;;;;13.90;99.90;;;;;;5095412;28;20303;-70
2023/09/22 12:49:15;;;;;;;;;;;13.90;99.90;;;;;;5111967;28;19919;-64
2023/09/22 12:51:42;;;;;;;;;;;13.90;99.90;;;;;;5115950;28;19908;-63
2023/09/22 12:54:09;;;;;;;;;;;14.00;99.90;;;;;;5115812;28;19908;-64
2023/09/22 12:56:36;;;;;;;;;;;13.90;99.90;;;;;;5114971;28;20002;-66
2023/09/22 12:59:03;;;;;;;;;;;13.80;99.90;;;;;;5115645;28;19908;-64
2023/09/22 13:01:30;;;;;;;;;;;13.80;99.90;;;;;;5115261;28;19923;-64
2023/09/22 13:03:56;;;;;;;;;;;13.80;99.90;;;;;;5115618;28;20461;-65
2023/09/22 13:06:23;;;;;;;;;;;13.80;99.90;;;;;;5115383;28;19912;-64
2023/09/22 13:08:49;;;;;;;;;;;13.70;99.90;;;;;;5115444;27;20312;-64
2023/09/22 13:11:16;;;;;;;;;;;13.80;99.90;;;;;;5115598;28;20343;-64
2023/09/22 13:13:43;;;;;;;;;;;13.70;99.90;;;;;;5101678;28;20327;-66
2023/09/22 13:16:10;;;;;;;;;;;13.70;99.90;;;;;;5095105;28;20388;-63
2023/09/22 13:18:36;;;;;;;;;;;13.70;99.90;;;;;;5092528;28;20377;-64
2023/09/22 13:21:10;;;;;;;;;;;13.60;99.90;;;;;;5092523;28;20022;-64
2023/09/22 13:23:37;;;;;;;;;;;13.60;99.90;;;;;;5074868;28;19909;-63
2023/09/22 13:26:05;;;;;;;;;;;13.60;99.90;;;;;;5080395;28;20003;-65
2023/09/22 13:28:32;;;;;;;;;;;13.60;99.90;;;;;;5094675;28;20380;-64
2023/09/22 13:30:58;;;;;;;;;;;13.50;99.90;;;;;;5082348;28;19918;-66
2023/09/22 13:33:28;;;;;;;;;;;13.60;99.90;;;;;;5113213;28;20248;-63
2023/09/22 13:35:55;;;;;;;;;;;13.50;99.90;;;;;;5108434;28;19953;-65
2023/09/22 13:38:22;;;;;;;;;;;13.50;99.90;;;;;;5094048;28;19908;-67
2023/09/22 13:40:50;;;;;;;;;;;13.50;99.90;;;;;;5094159;28;19916;-63
2023/09/22 13:43:17;;;;;;;;;;;13.40;99.90;;;;;;5094259;28;19977;-65
2023/09/22 13:45:43;;;;;;;;;;;13.40;99.90;;;;;;5094686;28;19933;-61
2023/09/22 13:48:10;;;;;;;;;;;13.30;99.90;;;;;;5101360;28;19970;-67
2023/09/22 13:50:40;;;;;;;;;;;13.40;99.90;;;;;;5114665;28;19908;-66
2023/09/22 13:53:08;;;;;;;;;;;13.40;99.90;;;;;;5114704;28;19907;-66
2023/09/22 13:55:41;;;;;;;;;;;13.30;99.90;;;;;;5114580;28;20356;-63
2023/09/22 13:58:09;;;;;;;;;;;13.30;99.90;;;;;;5114157;28;19908;-65
2023/09/22 14:00:37;;;;;;;;;;;13.20;99.90;;;;;;5113916;28;20303;-70
2023/09/22 14:03:04;;;;;;;;;;;13.20;99.90;;;;;;5114141;28;20460;-65
2023/09/22 14:05:31;;;;;;;;;;;13.10;99.90;;;;;;5114498;28;19953;-66
2023/09/22 14:07:58;;;;;;;;;;;13.10;99.90;;;;;;5114201;28;19955;-67
2023/09/22 14:10:25;;;;;;;;;;;13.10;99.90;;;;;;5113916;28;19961;-64
2023/09/22 14:12:52;;;;;;;;;;;13.10;99.90;;;;;;5113444;28;20425;-62
2023/09/22 14:15:19;;;;;;;;;;;13.10;99.90;;;;;;5114045;28;19969;-64
2023/09/22 14:17:46;;;;;;;;;;;13.00;99.90;;;;;;5114081;28;19915;-64
2023/09/22 14:20:13;;;;;;;;;;;13.10;99.90;;;;;;5114001;28;20265;-65